Chilchinbito, Arizona
Current Conditions -  °F | °C
As of 1:53 AM on Friday 19 Dec 2014 (Local Time) from KPGA Reporting Station
Clear Clear  
Wind Chill: 35°   Ceiling: Unl
Heat Index: 35°   Visibility: 10mi
Dew Point: 29°   Wind: 3mph
Humidity: 78%   Direction: 190°S
Pressure: 30.2"   Gusts: NA
Location:  36.6859°N, 110.268°W
Report Text: KPGA 190853Z AUTO 19003KT 10SM CLR 02/M02 A3020 RMK AO2 SLP223 T00171017 50000 TSNO
Loading
Personal Weather Stations






























Interactive Weather Map New forecast layout! Learn more

10-Day Weather Forecast

Advertisements
Track Severe Weather on mobile